Time;durP1;ratioP1;P1;durP2;ratioP2;P2;SDS_P1;SDS_P2;PMS_P1;PMS_P2;Temp;Humidity;BMP_temperature;BMP_pressure;BME280_temperature;BME280_humidity;BME280_pressure;Samples;Min_cycle;Max_cycle;Signal;HPM_P1;HPM_P2
2023/07/03 00:00:46;;;;;;;2.05;0.52;;;;;;;;;;21008021;28;20053;-70
2023/07/03 00:10:48;;;;;;;1.33;0.88;;;;;;;;;;21004634;28;20070;-70
2023/07/03 00:20:54;;;;;;;1.48;0.30;;;;;;;;;;21005088;28;20403;-70
2023/07/03 00:30:55;;;;;;;2.33;0.73;;;;;;;;;;21003725;28;20048;-70
2023/07/03 00:40:56;;;;;;;1.80;0.50;;;;;;;;;;21001918;28;20124;-70
2023/07/03 00:50:57;;;;;;;0.73;0.57;;;;;;;;;;21001023;28;20040;-70
2023/07/03 01:01:03;;;;;;;2.35;0.60;;;;;;;;;;21000110;28;20045;-71
2023/07/03 01:11:05;;;;;;;0.93;0.60;;;;;;;;;;20999670;28;20111;-70
2023/07/03 01:21:09;;;;;;;0.80;0.47;;;;;;;;;;20999779;28;20188;-69
2023/07/03 01:31:11;;;;;;;0.95;0.52;;;;;;;;;;20997495;28;20144;-70
2023/07/03 01:41:13;;;;;;;0.98;0.50;;;;;;;;;;20998495;28;20366;-69
2023/07/03 01:51:19;;;;;;;0.82;0.70;;;;;;;;;;20996657;28;20048;-69
2023/07/03 02:01:32;;;;;;;1.08;0.52;;;;;;;;;;20997583;28;20560;-69
2023/07/03 02:11:34;;;;;;;1.67;0.85;;;;;;;;;;20997003;28;20127;-69
2023/07/03 02:21:35;;;;;;;1.80;0.70;;;;;;;;;;20996315;28;20099;-70
2023/07/03 02:31:36;;;;;;;1.17;0.80;;;;;;;;;;20995993;28;20166;-70
2023/07/03 02:41:38;;;;;;;1.15;0.70;;;;;;;;;;21011868;28;20129;-71
2023/07/03 02:51:39;;;;;;;1.23;0.70;;;;;;;;;;21011914;28;20174;-70
2023/07/03 03:01:40;;;;;;;2.88;0.98;;;;;;;;;;21010024;28;20052;-70
2023/07/03 03:11:41;;;;;;;1.88;1.05;;;;;;;;;;21008910;28;20044;-70
2023/07/03 03:21:42;;;;;;;3.83;0.93;;;;;;;;;;21008315;28;20085;-70
2023/07/03 03:31:43;;;;;;;1.45;0.90;;;;;;;;;;21008645;28;20052;-69
2023/07/03 03:41:45;;;;;;;1.55;0.80;;;;;;;;;;21007765;28;20048;-69
2023/07/03 03:51:47;;;;;;;3.50;1.10;;;;;;;;;;21006908;28;20477;-69
2023/07/03 04:01:49;;;;;;;1.77;0.98;;;;;;;;;;21006753;28;20539;-69
2023/07/03 04:11:50;;;;;;;4.30;0.93;;;;;;;;;;21006018;28;20048;-69
2023/07/03 04:21:51;;;;;;;2.45;1.40;;;;;;;;;;21005026;28;20036;-69
2023/07/03 04:31:52;;;;;;;4.28;1.25;;;;;;;;;;21003916;28;20048;-69
2023/07/03 04:41:53;;;;;;;2.50;1.40;;;;;;;;;;21003296;28;20052;-68
2023/07/03 04:51:55;;;;;;;3.65;2.00;;;;;;;;;;21002213;28;20044;-70
2023/07/03 05:01:56;;;;;;;11.20;6.88;;;;;;;;;;21000958;28;20486;-70
2023/07/03 05:11:57;;;;;;;3.88;1.38;;;;;;;;;;21001131;28;20474;-70
2023/07/03 05:21:59;;;;;;;5.20;1.80;;;;;;;;;;21000515;28;20044;-70
2023/07/03 05:32:00;;;;;;;1.38;1.00;;;;;;;;;;20999211;28;20063;-69
2023/07/03 05:42:01;;;;;;;3.70;1.40;;;;;;;;;;20999108;28;20125;-70
2023/07/03 05:52:02;;;;;;;1.60;1.10;;;;;;;;;;20998286;28;20086;-69
2023/07/03 06:02:05;;;;;;;1.98;1.02;;;;;;;;;;20996926;28;20052;-69
2023/07/03 06:12:06;;;;;;;3.90;1.67;;;;;;;;;;20997393;28;20119;-69
2023/07/03 06:22:07;;;;;;;5.32;1.48;;;;;;;;;;20996629;28;20444;-69
2023/07/03 06:32:09;;;;;;;4.93;1.40;;;;;;;;;;20996136;28;20497;-70
2023/07/03 06:42:10;;;;;;;2.03;1.30;;;;;;;;;;20996025;28;20040;-70
2023/07/03 06:52:12;;;;;;;3.28;1.48;;;;;;;;;;20995302;28;20037;-70
2023/07/03 07:02:13;;;;;;;3.55;1.52;;;;;;;;;;20994396;28;20429;-71
2023/07/03 07:12:14;;;;;;;3.90;1.70;;;;;;;;;;20994373;28;20509;-70
2023/07/03 07:22:15;;;;;;;2.67;1.50;;;;;;;;;;21000173;28;20162;-70
2023/07/03 07:32:16;;;;;;;7.40;2.22;;;;;;;;;;21007413;28;20053;-69
2023/07/03 07:42:17;;;;;;;4.05;1.58;;;;;;;;;;21008262;28;20057;-70
2023/07/03 07:52:18;;;;;;;4.43;1.75;;;;;;;;;;21007498;28;20041;-70
2023/07/03 08:02:20;;;;;;;5.90;2.70;;;;;;;;;;21005469;28;20113;-71
2023/07/03 08:12:22;;;;;;;3.78;2.10;;;;;;;;;;21004255;28;20048;-71
2023/07/03 08:22:23;;;;;;;7.47;2.10;;;;;;;;;;21004845;28;20048;-70
2023/07/03 08:32:24;;;;;;;7.28;2.45;;;;;;;;;;21001495;28;20063;-70
2023/07/03 08:42:33;;;;;;;11.90;3.00;;;;;;;;;;21003171;28;20505;-71
2023/07/03 08:52:39;;;;;;;4.78;2.20;;;;;;;;;;21002147;28;20127;-71
2023/07/03 09:02:41;;;;;;;5.28;2.47;;;;;;;;;;21001476;28;20561;-71
2023/07/03 09:12:45;;;;;;;5.32;2.80;;;;;;;;;;20999373;28;20040;-71
2023/07/03 09:22:48;;;;;;;6.57;2.63;;;;;;;;;;20999877;28;20417;-70
2023/07/03 09:32:50;;;;;;;6.70;3.17;;;;;;;;;;20999430;28;20193;-70
2023/07/03 09:42:51;;;;;;;3.72;2.30;;;;;;;;;;20997821;28;20062;-72
2023/07/03 09:52:54;;;;;;;7.15;3.28;;;;;;;;;;20996575;28;20045;-71
2023/07/03 10:02:56;;;;;;;5.45;2.40;;;;;;;;;;20997433;28;20044;-70
2023/07/03 10:13:16;;;;;;;7.18;3.25;;;;;;;;;;20996588;28;20040;-71
2023/07/03 10:23:24;;;;;;;5.10;2.50;;;;;;;;;;20996432;28;20401;-71
2023/07/03 10:33:32;;;;;;;6.78;2.40;;;;;;;;;;20995651;28;20056;-70
2023/07/03 10:43:36;;;;;;;5.88;2.55;;;;;;;;;;20995870;28;20037;-70
2023/07/03 10:53:40;;;;;;;5.47;3.13;;;;;;;;;;20996023;28;20044;-71
2023/07/03 11:03:49;;;;;;;4.67;3.03;;;;;;;;;;21009434;28;20059;-71
2023/07/03 11:14:10;;;;;;;5.03;2.78;;;;;;;;;;21008923;28;20102;-70
2023/07/03 11:24:11;;;;;;;5.65;2.95;;;;;;;;;;21007783;28;20110;-71
2023/07/03 11:34:14;;;;;;;6.35;2.97;;;;;;;;;;21008652;28;20058;-71
2023/07/03 11:44:16;;;;;;;5.43;3.70;;;;;;;;;;21008006;28;20048;-71
2023/07/03 11:54:22;;;;;;;7.55;3.65;;;;;;;;;;21007168;28;20489;-72
2023/07/03 12:04:43;;;;;;;13.98;7.40;;;;;;;;;;21006264;28;20560;-72
2023/07/03 12:14:58;;;;;;;6.82;4.05;;;;;;;;;;21004309;28;20047;-71
2023/07/03 12:25:09;;;;;;;9.40;6.13;;;;;;;;;;21004555;28;20415;-72
2023/07/03 12:35:19;;;;;;;6.82;4.10;;;;;;;;;;21002739;28;20105;-72
2023/07/03 12:45:29;;;;;;;7.47;4.88;;;;;;;;;;21000807;28;20081;-71
2023/07/03 12:55:32;;;;;;;6.10;3.85;;;;;;;;;;21000668;28;20052;-71
2023/07/03 13:05:35;;;;;;;6.07;4.80;;;;;;;;;;21001319;28;20056;-71
2023/07/03 13:15:38;;;;;;;8.82;4.40;;;;;;;;;;20999030;28;20133;-71
2023/07/03 13:25:40;;;;;;;6.82;4.60;;;;;;;;;;20999342;28;20398;-71
2023/07/03 13:35:47;;;;;;;5.57;3.75;;;;;;;;;;20999016;28;20106;-71
2023/07/03 13:45:49;;;;;;;5.45;4.55;;;;;;;;;;20998316;28;20501;-71
2023/07/03 13:55:50;;;;;;;7.88;4.60;;;;;;;;;;20996598;28;20040;-71
2023/07/03 14:05:52;;;;;;;6.43;4.68;;;;;;;;;;20996960;28;20045;-71
2023/07/03 14:15:53;;;;;;;7.53;4.57;;;;;;;;;;20997382;28;20094;-71
2023/07/03 14:25:55;;;;;;;7.43;4.07;;;;;;;;;;20996626;28;20067;-71
2023/07/03 14:35:56;;;;;;;7.57;5.38;;;;;;;;;;21008680;28;20088;-70
2023/07/03 14:45:58;;;;;;;7.30;5.22;;;;;;;;;;21012920;28;20124;-67
2023/07/03 14:56:00;;;;;;;6.72;5.13;;;;;;;;;;21010524;28;20052;-68
2023/07/03 15:06:10;;;;;;;5.50;3.75;;;;;;;;;;21010112;28;20052;-68
2023/07/03 15:16:11;;;;;;;5.10;3.45;;;;;;;;;;21010531;28;20064;-66
2023/07/03 15:26:12;;;;;;;4.82;3.70;;;;;;;;;;21009333;28;20465;-68
2023/07/03 15:36:13;;;;;;;5.57;3.42;;;;;;;;;;21007703;28;20524;-68
2023/07/03 15:46:16;;;;;;;4.53;3.30;;;;;;;;;;21007268;28;20543;-67
2023/07/03 15:56:19;;;;;;;5.45;3.22;;;;;;;;;;21006886;28;20045;-68
2023/07/03 16:06:21;;;;;;;2.60;2.13;;;;;;;;;;21004481;28;20084;-68
2023/07/03 16:16:23;;;;;;;4.25;3.08;;;;;;;;;;21004719;28;20163;-67
2023/07/03 16:26:25;;;;;;;5.18;2.97;;;;;;;;;;21003949;28;20076;-67
2023/07/03 16:36:27;;;;;;;4.68;2.30;;;;;;;;;;21002305;28;20094;-69
2023/07/03 16:46:28;;;;;;;4.57;2.53;;;;;;;;;;21002051;28;20558;-68
2023/07/03 16:56:29;;;;;;;5.38;2.83;;;;;;;;;;21000602;28;20045;-68
2023/07/03 17:06:34;;;;;;;4.13;2.60;;;;;;;;;;21001803;28;20051;-67
2023/07/03 17:16:36;;;;;;;4.47;3.20;;;;;;;;;;21001408;28;20521;-68
2023/07/03 17:26:38;;;;;;;5.13;4.20;;;;;;;;;;20998834;28;20501;-67
2023/07/03 17:36:39;;;;;;;4.25;3.28;;;;;;;;;;20998764;28;20095;-67
2023/07/03 17:46:40;;;;;;;5.40;3.95;;;;;;;;;;20997257;28;20115;-68
2023/07/03 17:56:41;;;;;;;6.90;4.25;;;;;;;;;;20996757;28;20493;-68
2023/07/03 18:06:42;;;;;;;5.55;3.95;;;;;;;;;;20994902;28;20125;-68
2023/07/03 18:16:43;;;;;;;5.85;4.50;;;;;;;;;;20995617;28;20181;-68
2023/07/03 18:26:45;;;;;;;9.00;4.60;;;;;;;;;;20995310;28;20040;-69
2023/07/03 18:36:46;;;;;;;6.82;3.95;;;;;;;;;;20995280;28;20087;-68
2023/07/03 18:46:47;;;;;;;5.13;3.90;;;;;;;;;;20995329;28;20040;-68
2023/07/03 18:56:48;;;;;;;5.82;4.00;;;;;;;;;;20993889;28;20049;-69
2023/07/03 19:06:49;;;;;;;4.28;3.75;;;;;;;;;;20994504;28;20444;-68
2023/07/03 19:16:51;;;;;;;6.70;3.53;;;;;;;;;;20997717;28;20052;-69
2023/07/03 19:26:52;;;;;;;18.67;15.05;;;;;;;;;;21008293;28;20541;-67
2023/07/03 19:36:53;;;;;;;7.03;3.75;;;;;;;;;;21006581;28;20068;-68
2023/07/03 19:46:55;;;;;;;8.48;4.80;;;;;;;;;;21006430;28;20517;-68
2023/07/03 19:56:56;;;;;;;5.22;3.72;;;;;;;;;;21006398;28;20401;-68
2023/07/03 20:06:57;;;;;;;8.65;4.20;;;;;;;;;;21004293;28;20175;-67
2023/07/03 20:16:58;;;;;;;6.18;4.28;;;;;;;;;;21005583;28;20170;-68
2023/07/03 20:27:00;;;;;;;5.72;3.13;;;;;;;;;;21005055;28;20045;-68
2023/07/03 20:37:01;;;;;;;6.63;4.05;;;;;;;;;;21003605;28;20143;-68
2023/07/03 20:47:02;;;;;;;4.60;2.20;;;;;;;;;;21002991;28;20056;-68
2023/07/03 20:57:04;;;;;;;3.20;2.60;;;;;;;;;;21002094;28;20048;-68
2023/07/03 21:07:05;;;;;;;7.63;2.75;;;;;;;;;;21000218;28;20048;-68
2023/07/03 21:17:07;;;;;;;3.80;2.50;;;;;;;;;;21000953;28;20048;-68
2023/07/03 21:27:08;;;;;;;4.65;2.83;;;;;;;;;;21000153;28;20041;-69
2023/07/03 21:37:09;;;;;;;4.63;2.50;;;;;;;;;;20998112;28;20056;-68
2023/07/03 21:47:12;;;;;;;5.07;2.55;;;;;;;;;;20998944;28;20046;-68
2023/07/03 21:57:14;;;;;;;7.65;2.65;;;;;;;;;;20998292;28;20113;-68
2023/07/03 22:07:15;;;;;;;3.05;2.40;;;;;;;;;;20997572;28;20098;-67
2023/07/03 22:17:16;;;;;;;4.38;3.13;;;;;;;;;;20997398;28;20044;-70
2023/07/03 22:27:17;;;;;;;4.45;2.67;;;;;;;;;;20997049;28;20382;-68
2023/07/03 22:37:18;;;;;;;4.55;3.63;;;;;;;;;;20996359;28;20440;-69
2023/07/03 22:47:19;;;;;;;6.88;2.92;;;;;;;;;;20996525;28;20049;-69
2023/07/03 22:57:21;;;;;;;3.85;2.70;;;;;;;;;;21009232;28;20464;-68
2023/07/03 23:07:22;;;;;;;4.07;2.70;;;;;;;;;;21011686;28;20134;-68
2023/07/03 23:17:24;;;;;;;4.18;2.83;;;;;;;;;;21009874;28;20052;-68
2023/07/03 23:27:27;;;;;;;7.40;2.92;;;;;;;;;;21009258;28;20123;-68
2023/07/03 23:37:28;;;;;;;3.20;2.08;;;;;;;;;;21009672;28;20057;-68
2023/07/03 23:47:29;;;;;;;3.60;2.00;;;;;;;;;;21008703;28;20044;-68
2023/07/03 23:57:31;;;;;;;3.28;1.92;;;;;;;;;;21007672;28;20047;-68
